createdAt,value
2022-09-11T00:01:22.615Z,18.42
2022-09-11T00:03:49.292Z,18.25
2022-09-11T00:06:28.802Z,17.40
2022-09-11T00:09:00.691Z,16.55
2022-09-11T00:11:30.091Z,16.38
2022-09-11T00:13:59.448Z,16.60
2022-09-11T00:16:33.865Z,19.58
2022-09-11T00:19:06.433Z,16.98
2022-09-11T00:21:37.809Z,17.42
2022-09-11T00:24:04.583Z,17.75
2022-09-11T00:26:33.387Z,17.73
2022-09-11T00:29:02.129Z,19.00
2022-09-11T00:31:30.347Z,19.70
2022-09-11T00:33:57.405Z,18.85
2022-09-11T00:36:28.997Z,18.30
2022-09-11T00:38:58.873Z,19.65
2022-09-11T00:41:33.318Z,18.27
2022-09-11T00:44:16.927Z,19.80
2022-09-11T00:46:48.770Z,20.38
2022-09-11T00:49:39.288Z,20.73
2022-09-11T00:52:11.478Z,19.98
2022-09-11T00:54:51.451Z,18.83
2022-09-11T00:57:23.998Z,19.42
2022-09-11T00:59:55.919Z,20.23
2022-09-11T01:02:27.514Z,20.10
2022-09-11T01:04:55.495Z,21.63
2022-09-11T01:07:24.149Z,19.75
2022-09-11T01:09:51.221Z,21.23
2022-09-11T01:12:26.726Z,20.88
2022-09-11T01:15:25.529Z,20.50
2022-09-11T01:18:07.183Z,21.20
2022-09-11T01:20:56.894Z,22.20
2022-09-11T01:24:09.070Z,21.67
2022-09-11T01:27:03.393Z,21.40
2022-09-11T01:29:35.510Z,20.40
2022-09-11T01:32:18.882Z,21.65
2022-09-11T01:35:00.216Z,21.83
2022-09-11T01:37:44.404Z,21.17
2022-09-11T01:40:25.007Z,21.45
2022-09-11T01:42:55.118Z,21.65
2022-09-11T01:45:25.608Z,22.73
2022-09-11T01:47:53.403Z,21.92
2022-09-11T01:50:21.438Z,22.17
2022-09-11T01:52:50.603Z,21.52
2022-09-11T01:55:21.466Z,21.35
2022-09-11T01:57:48.001Z,21.15
2022-09-11T02:00:14.817Z,21.17
2022-09-11T02:02:52.518Z,19.42
2022-09-11T02:05:37.321Z,20.13
2022-09-11T02:08:17.191Z,20.40
2022-09-11T02:10:51.943Z,21.80
2022-09-11T02:13:30.333Z,21.92
2022-09-11T02:16:14.664Z,21.08
2022-09-11T02:18:54.510Z,20.55
2022-09-11T02:21:24.334Z,20.80
2022-09-11T02:23:51.078Z,20.88
2022-09-11T02:26:21.789Z,20.15
2022-09-11T02:28:48.334Z,20.70
2022-09-11T02:31:14.934Z,21.25
2022-09-11T02:33:41.995Z,20.38
2022-09-11T02:36:40.634Z,20.40
2022-09-11T02:39:23.186Z,20.08
2022-09-11T02:42:15.892Z,20.60
2022-09-11T02:45:04.616Z,19.33
2022-09-11T02:47:53.297Z,20.27
2022-09-11T02:50:45.956Z,19.35
2022-09-11T02:53:24.551Z,18.65
2022-09-11T02:56:23.574Z,21.05
2022-09-11T02:58:56.517Z,21.23
2022-09-11T03:01:23.709Z,20.92
2022-09-11T03:03:50.273Z,22.00
2022-09-11T03:06:25.388Z,21.80
2022-09-11T03:08:52.112Z,21.73
2022-09-11T03:11:20.136Z,19.60
2022-09-11T03:13:49.154Z,22.13
2022-09-11T03:16:15.662Z,17.92
2022-09-11T03:18:42.192Z,18.25
2022-09-11T03:21:11.431Z,18.60
2022-09-11T03:23:38.515Z,17.48
2022-09-11T03:26:05.463Z,16.90
2022-09-11T03:28:32.148Z,17.17
2022-09-11T03:30:59.243Z,17.83
2022-09-11T03:33:25.838Z,19.33
2022-09-11T03:35:52.339Z,19.95
2022-09-11T03:38:21.225Z,18.25
2022-09-11T03:40:47.873Z,19.60
2022-09-11T03:43:16.606Z,20.27
2022-09-11T03:45:44.768Z,21.23
2022-09-11T03:48:14.474Z,18.13
2022-09-11T03:50:41.234Z,17.85
2022-09-11T03:53:11.147Z,18.17
2022-09-11T03:55:38.316Z,17.23
2022-09-11T03:58:05.010Z,17.52
2022-09-11T04:00:31.562Z,17.80
2022-09-11T04:02:58.141Z,17.63
2022-09-11T04:05:25.398Z,17.10
2022-09-11T04:07:55.126Z,17.67
2022-09-11T04:10:24.083Z,17.73
2022-09-11T04:12:50.607Z,17.10
2022-09-11T04:15:20.193Z,16.48
2022-09-11T04:17:46.720Z,16.27
2022-09-11T04:20:13.573Z,15.85
2022-09-11T04:22:41.599Z,15.30
2022-09-11T04:25:08.582Z,15.75
2022-09-11T04:27:39.740Z,15.70
2022-09-11T04:30:06.964Z,14.98
2022-09-11T04:32:34.248Z,15.05
2022-09-11T04:35:01.894Z,17.05
2022-09-11T04:37:28.968Z,17.10
2022-09-11T04:39:55.543Z,22.27
2022-09-11T04:42:22.042Z,20.60
2022-09-11T04:44:51.599Z,19.52
2022-09-11T04:47:23.098Z,20.38
2022-09-11T04:49:49.703Z,21.38
2022-09-11T04:52:18.449Z,19.27
2022-09-11T04:54:46.160Z,20.00
2022-09-11T04:57:14.062Z,20.10
2022-09-11T04:59:42.742Z,19.85
2022-09-11T05:02:09.315Z,19.20
2022-09-11T05:04:36.007Z,19.00
2022-09-11T05:07:02.679Z,18.65
2022-09-11T05:09:31.713Z,16.52
2022-09-11T05:11:58.341Z,17.33
2022-09-11T05:14:25.406Z,15.02
2022-09-11T05:16:53.120Z,15.70
2022-09-11T05:19:22.625Z,14.25
2022-09-11T05:21:49.237Z,14.98
2022-09-11T05:24:15.756Z,14.80
2022-09-11T05:26:44.572Z,15.20
2022-09-11T05:29:14.044Z,14.70
2022-09-11T05:31:41.644Z,14.60
2022-09-11T05:34:08.694Z,13.55
2022-09-11T05:36:35.958Z,13.90
2022-09-11T05:39:04.002Z,14.60
2022-09-11T05:41:33.473Z,15.00
2022-09-11T05:44:02.298Z,15.77
2022-09-11T05:46:30.564Z,16.33
2022-09-11T05:48:59.697Z,13.95
2022-09-11T05:51:26.805Z,14.85
2022-09-11T05:53:57.657Z,15.23
2022-09-11T05:56:29.119Z,15.57
2022-09-11T05:58:58.261Z,14.80
2022-09-11T06:01:29.468Z,14.05
2022-09-11T06:04:03.960Z,13.95
2022-09-11T06:06:34.608Z,14.05
2022-09-11T06:09:07.146Z,13.80
2022-09-11T06:11:43.674Z,13.88
2022-09-11T06:14:14.122Z,14.18
2022-09-11T06:16:45.012Z,14.55
2022-09-11T06:19:11.745Z,14.60
2022-09-11T06:21:38.301Z,14.38
2022-09-11T06:24:05.610Z,15.13
2022-09-11T06:26:32.308Z,14.02
2022-09-11T06:28:58.981Z,13.75
2022-09-11T06:31:27.398Z,13.98
2022-09-11T06:33:55.923Z,14.35
2022-09-11T06:36:32.186Z,14.32
2022-09-11T06:39:01.333Z,13.85
2022-09-11T06:41:38.362Z,14.40
2022-09-11T06:44:10.665Z,13.65
2022-09-11T06:46:41.713Z,13.55
2022-09-11T06:49:09.460Z,14.23
2022-09-11T06:51:39.508Z,14.32
2022-09-11T06:54:06.646Z,13.27
2022-09-11T06:56:35.574Z,13.88
2022-09-11T06:59:04.588Z,13.20
2022-09-11T07:01:31.319Z,13.65
2022-09-11T07:03:57.856Z,12.98
2022-09-11T07:06:30.422Z,14.57
2022-09-11T07:09:02.518Z,15.77
2022-09-11T07:11:36.419Z,17.88
2022-09-11T07:14:05.904Z,33.35
2022-09-11T07:16:33.587Z,21.88
2022-09-11T07:19:03.630Z,18.67
2022-09-11T07:21:35.594Z,15.50
2022-09-11T07:24:02.545Z,14.88
2022-09-11T07:26:32.559Z,14.57
2022-09-11T07:28:59.821Z,14.45
2022-09-11T07:31:29.449Z,14.13
2022-09-11T07:33:57.108Z,13.20
2022-09-11T07:36:28.600Z,13.68
2022-09-11T07:38:57.596Z,13.00
2022-09-11T07:41:25.656Z,14.85
2022-09-11T07:43:57.049Z,16.77
2022-09-11T07:46:27.006Z,18.15
2022-09-11T07:48:55.141Z,21.98
2022-09-11T07:51:21.743Z,20.17
2022-09-11T07:53:51.899Z,21.70
2022-09-11T07:56:24.564Z,28.58
2022-09-11T07:58:52.669Z,31.27
2022-09-11T08:01:29.659Z,28.27
2022-09-11T08:04:01.667Z,21.38
2022-09-11T08:06:30.420Z,19.65
2022-09-11T08:09:07.062Z,20.27
2022-09-11T08:11:38.648Z,20.90
2022-09-11T08:14:05.438Z,21.25
2022-09-11T08:16:32.019Z,16.40
2022-09-11T08:19:00.861Z,17.00
2022-09-11T08:21:27.792Z,16.42
2022-09-11T08:23:54.615Z,17.48
2022-09-11T08:26:26.735Z,16.70
2022-09-11T08:28:57.555Z,18.15
2022-09-11T08:31:27.870Z,17.98
2022-09-11T08:33:55.858Z,16.77
2022-09-11T08:36:25.607Z,17.77
2022-09-11T08:38:55.150Z,16.83
2022-09-11T08:41:35.433Z,17.70
2022-09-11T08:44:11.955Z,17.10
2022-09-11T08:47:11.879Z,17.67
2022-09-11T08:49:43.033Z,18.48
2022-09-11T08:52:13.972Z,17.40
2022-09-11T08:54:42.399Z,18.05
2022-09-11T08:57:29.148Z,18.48
2022-09-11T09:00:18.222Z,17.10
2022-09-11T09:03:05.469Z,16.92
2022-09-11T09:05:40.375Z,16.75
2022-09-11T09:08:22.160Z,16.30
2022-09-11T09:10:50.960Z,14.35
2022-09-11T09:13:39.506Z,16.83
2022-09-11T09:16:11.563Z,15.40
2022-09-11T09:18:50.585Z,14.60
2022-09-11T09:21:42.525Z,14.85
2022-09-11T09:24:21.630Z,16.25
2022-09-11T09:26:56.316Z,15.38
2022-09-11T09:29:28.384Z,12.73
2022-09-11T09:32:06.536Z,15.52
2022-09-11T09:34:37.459Z,17.52
2022-09-11T09:37:07.769Z,17.00
2022-09-11T09:39:36.513Z,15.35
2022-09-11T09:42:30.887Z,15.70
2022-09-11T09:45:31.391Z,16.58
2022-09-11T09:47:58.435Z,16.23
2022-09-11T09:50:33.508Z,16.33
2022-09-11T09:53:11.485Z,18.38
2022-09-11T09:55:40.978Z,17.48
2022-09-11T09:58:07.641Z,17.50
2022-09-11T10:00:37.757Z,15.85
2022-09-11T10:03:22.183Z,16.38
2022-09-11T10:05:50.974Z,17.38
2022-09-11T10:08:36.162Z,15.77
2022-09-11T10:11:13.905Z,14.93
2022-09-11T10:13:43.001Z,14.63
2022-09-11T10:16:21.835Z,15.00
2022-09-11T10:18:48.471Z,15.02
2022-09-11T10:21:34.079Z,15.93
2022-09-11T10:24:03.489Z,13.95
2022-09-11T10:26:34.054Z,14.02
2022-09-11T10:29:30.331Z,14.07
2022-09-11T10:32:06.815Z,10.55
2022-09-11T10:34:38.587Z,10.43
2022-09-11T10:37:29.878Z,11.45
2022-09-11T10:40:06.201Z,11.93
2022-09-11T10:42:35.629Z,10.57
2022-09-11T10:45:17.535Z,11.10
2022-09-11T10:47:48.507Z,12.07
2022-09-11T10:50:18.119Z,15.23
2022-09-11T10:53:03.646Z,14.05
2022-09-11T10:55:40.667Z,13.10
2022-09-11T10:58:23.840Z,13.75
2022-09-11T11:00:53.336Z,12.45
2022-09-11T11:03:31.970Z,12.27
2022-09-11T11:06:04.601Z,9.80
2022-09-11T11:08:51.282Z,10.77
2022-09-11T11:11:47.925Z,10.65
2022-09-11T11:14:27.256Z,10.00
2022-09-11T11:17:11.962Z,8.95
2022-09-11T11:20:02.986Z,8.65
2022-09-11T11:22:47.933Z,9.00
2022-09-11T11:25:50.495Z,9.63
2022-09-11T11:28:40.427Z,8.25
2022-09-11T11:31:22.817Z,8.25
2022-09-11T11:34:30.168Z,8.38
2022-09-11T11:37:19.930Z,8.63
2022-09-11T11:39:46.447Z,6.57
2022-09-11T11:42:30.221Z,6.95
2022-09-11T11:45:06.812Z,8.88
2022-09-11T11:47:42.525Z,8.10
2022-09-11T11:50:49.002Z,8.02
2022-09-11T11:53:24.638Z,7.35
2022-09-11T11:56:00.868Z,7.03
2022-09-11T11:58:45.705Z,6.55
2022-09-11T12:01:22.175Z,4.97
2022-09-11T12:03:59.601Z,4.82
2022-09-11T12:06:27.084Z,6.05
2022-09-11T12:08:53.783Z,4.93
2022-09-11T12:11:30.494Z,5.07
2022-09-11T12:13:58.036Z,4.40
2022-09-11T12:16:44.297Z,4.22
2022-09-11T12:19:21.944Z,4.88
2022-09-11T12:21:54.925Z,6.20
2022-09-11T12:24:24.473Z,6.70
2022-09-11T12:27:49.771Z,5.40
2022-09-11T12:30:16.223Z,5.07
2022-09-11T12:32:49.734Z,6.10
2022-09-11T12:35:22.027Z,5.55
2022-09-11T12:37:56.349Z,5.75
2022-09-11T12:40:32.485Z,5.63
2022-09-11T12:43:27.903Z,5.43
2022-09-11T12:45:57.274Z,5.28
2022-09-11T12:48:34.392Z,6.28
2022-09-11T12:51:02.492Z,5.45
2022-09-11T12:53:32.846Z,5.95
2022-09-11T12:56:03.627Z,6.72
2022-09-11T12:58:43.822Z,5.65
2022-09-11T13:01:13.195Z,5.68
2022-09-11T13:03:56.702Z,5.15
2022-09-11T13:06:25.945Z,4.45
2022-09-11T13:08:59.757Z,4.45
2022-09-11T13:11:36.660Z,5.10
2022-09-11T13:14:03.936Z,4.05
2022-09-11T13:16:34.866Z,3.67
2022-09-11T13:19:11.385Z,3.38
2022-09-11T13:21:40.680Z,3.55
2022-09-11T13:24:28.228Z,3.67
2022-09-11T13:26:58.111Z,3.83
2022-09-11T13:29:27.374Z,3.40
2022-09-11T13:31:55.939Z,3.30
2022-09-11T13:34:24.971Z,2.65
2022-09-11T13:36:56.451Z,3.30
2022-09-11T13:39:26.755Z,3.33
2022-09-11T13:42:02.580Z,2.88
2022-09-11T13:44:43.033Z,3.10
2022-09-11T13:47:21.623Z,3.20
2022-09-11T13:49:51.119Z,2.97
2022-09-11T13:52:18.851Z,2.70
2022-09-11T13:55:10.480Z,2.72
2022-09-11T13:57:55.704Z,6.57
2022-09-11T14:00:37.609Z,7.05
2022-09-11T14:03:06.901Z,5.85
2022-09-11T14:05:35.063Z,4.97
2022-09-11T14:08:21.591Z,4.70
2022-09-11T14:10:54.999Z,4.68
2022-09-11T14:13:24.657Z,4.60
2022-09-11T14:16:01.520Z,4.70
2022-09-11T14:18:33.899Z,4.40
2022-09-11T14:21:04.851Z,3.25
2022-09-11T14:23:31.826Z,4.15
2022-09-11T14:26:10.632Z,5.03
2022-09-11T14:28:46.001Z,4.95
2022-09-11T14:31:14.558Z,4.70
2022-09-11T14:33:42.042Z,4.65
2022-09-11T14:36:20.130Z,3.72
2022-09-11T14:38:47.778Z,4.35
2022-09-11T14:41:14.441Z,5.47
2022-09-11T14:43:41.069Z,4.10
2022-09-11T14:46:07.618Z,4.90
2022-09-11T14:48:35.117Z,5.95
2022-09-11T14:51:13.376Z,5.22
2022-09-11T14:53:43.555Z,5.28
2022-09-11T14:56:12.744Z,5.38
2022-09-11T14:58:39.287Z,5.35
2022-09-11T15:01:05.978Z,4.78
2022-09-11T15:03:32.537Z,5.30
2022-09-11T15:05:59.503Z,4.72
2022-09-11T15:08:26.136Z,5.30
2022-09-11T15:10:53.736Z,6.00
2022-09-11T15:13:21.910Z,6.60
2022-09-11T15:15:48.612Z,5.82
2022-09-11T15:18:15.209Z,6.60
2022-09-11T15:20:41.879Z,6.75
2022-09-11T15:23:08.577Z,6.63
2022-09-11T15:25:35.101Z,6.72
2022-09-11T15:28:01.764Z,5.40
2022-09-11T15:30:28.492Z,4.97
2022-09-11T15:32:55.153Z,4.82
2022-09-11T15:35:23.850Z,4.38
2022-09-11T15:37:50.900Z,4.68
2022-09-11T15:40:18.013Z,4.95
2022-09-11T15:42:44.693Z,4.53
2022-09-11T15:45:13.010Z,4.50
2022-09-11T15:47:42.254Z,4.53
2022-09-11T15:50:09.319Z,4.32
2022-09-11T15:52:36.609Z,3.95
2022-09-11T15:55:35.951Z,2.90
2022-09-11T15:58:08.667Z,4.72
2022-09-11T16:00:40.021Z,5.40
2022-09-11T16:03:08.056Z,4.50
2022-09-11T16:05:41.652Z,4.70
2022-09-11T16:08:11.166Z,4.30
2022-09-11T16:10:38.681Z,3.70
2022-09-11T16:13:05.428Z,3.25
2022-09-11T16:15:32.547Z,4.03
2022-09-11T16:17:59.987Z,3.90
2022-09-11T16:20:26.815Z,5.07
2022-09-11T16:23:07.108Z,4.25
2022-09-11T16:25:39.485Z,3.95
2022-09-11T16:28:08.878Z,4.10
2022-09-11T16:30:44.495Z,3.45
2022-09-11T16:33:13.194Z,3.78
2022-09-11T16:35:40.155Z,4.10
2022-09-11T16:38:07.513Z,4.95
2022-09-11T16:40:37.861Z,4.70
2022-09-11T16:43:05.300Z,4.90
2022-09-11T16:45:36.022Z,4.60
2022-09-11T16:48:06.257Z,5.03
2022-09-11T16:50:32.979Z,5.38
2022-09-11T16:52:59.599Z,4.40
2022-09-11T16:55:28.611Z,4.65
2022-09-11T16:57:55.104Z,5.05
2022-09-11T17:00:21.820Z,5.68
2022-09-11T17:02:52.894Z,4.25
2022-09-11T17:05:19.476Z,4.53
2022-09-11T17:07:46.039Z,4.18
2022-09-11T17:10:14.434Z,4.13
2022-09-11T17:12:41.213Z,4.40
2022-09-11T17:15:15.278Z,4.40
2022-09-11T17:17:43.457Z,4.80
2022-09-11T17:20:11.795Z,4.57
2022-09-11T17:22:39.736Z,4.28
2022-09-11T17:25:09.034Z,4.68
2022-09-11T17:27:40.952Z,4.70
2022-09-11T17:30:08.110Z,4.55
2022-09-11T17:32:34.689Z,4.32
2022-09-11T17:35:01.238Z,4.72
2022-09-11T17:37:28.041Z,3.78
2022-09-11T17:39:55.742Z,4.45
2022-09-11T17:42:22.803Z,4.10
2022-09-11T17:44:49.379Z,4.20
2022-09-11T17:47:16.090Z,4.00
2022-09-11T17:49:43.061Z,3.50
2022-09-11T17:52:09.807Z,4.10
2022-09-11T17:54:36.696Z,4.10
2022-09-11T17:57:03.441Z,3.97
2022-09-11T17:59:32.268Z,4.70
2022-09-11T18:01:59.936Z,4.57
2022-09-11T18:04:26.942Z,4.97
2022-09-11T18:06:53.623Z,4.53
2022-09-11T18:09:23.236Z,4.80
2022-09-11T18:11:54.570Z,4.32
2022-09-11T18:14:21.140Z,4.63
2022-09-11T18:16:47.960Z,4.90
2022-09-11T18:19:16.589Z,4.63
2022-09-11T18:21:50.188Z,4.82
2022-09-11T18:24:20.867Z,4.53
2022-09-11T18:26:51.463Z,4.68
2022-09-11T18:29:20.023Z,4.95
2022-09-11T18:31:52.061Z,4.68
2022-09-11T18:34:29.182Z,4.65
2022-09-11T18:36:59.882Z,4.88
2022-09-11T18:39:27.493Z,4.78
2022-09-11T18:41:54.075Z,4.57
2022-09-11T18:44:24.617Z,4.43
2022-09-11T18:46:55.304Z,4.43
2022-09-11T18:49:23.370Z,4.35
2022-09-11T18:51:50.594Z,5.22
2022-09-11T18:54:21.399Z,4.43
2022-09-11T18:56:49.732Z,5.22
2022-09-11T18:59:16.786Z,5.68
2022-09-11T19:01:43.749Z,5.10
2022-09-11T19:04:12.195Z,4.65
2022-09-11T19:06:39.460Z,5.15
2022-09-11T19:09:10.202Z,5.47
2022-09-11T19:11:41.604Z,5.65
2022-09-11T19:14:12.124Z,6.20
2022-09-11T19:16:41.309Z,6.53
2022-09-11T19:19:10.910Z,5.78
2022-09-11T19:21:40.456Z,5.85
2022-09-11T19:24:09.220Z,6.05
2022-09-11T19:26:38.925Z,6.05
2022-09-11T19:29:07.008Z,7.10
2022-09-11T19:31:36.379Z,6.72
2022-09-11T19:34:03.171Z,6.60
2022-09-11T19:36:32.003Z,6.70
2022-09-11T19:39:01.535Z,6.53
2022-09-11T19:41:33.952Z,7.40
2022-09-11T19:44:05.457Z,7.72
2022-09-11T19:46:33.535Z,7.32
2022-09-11T19:49:11.182Z,7.32
2022-09-11T19:51:42.584Z,7.38
2022-09-11T19:54:14.453Z,7.70
2022-09-11T19:56:42.419Z,7.28
2022-09-11T19:59:12.609Z,7.13
2022-09-11T20:01:39.459Z,8.90
2022-09-11T20:04:06.287Z,8.18
2022-09-11T20:06:37.466Z,7.80
2022-09-11T20:09:29.979Z,7.90
2022-09-11T20:11:51.967Z,8.20
2022-09-11T20:14:18.476Z,8.23
2022-09-11T20:16:45.112Z,8.77
2022-09-11T20:19:11.706Z,8.07
2022-09-11T20:21:38.524Z,8.02
2022-09-11T20:24:06.424Z,8.63
2022-09-11T20:26:34.084Z,9.07
2022-09-11T20:29:07.106Z,10.00
2022-09-11T20:31:42.402Z,8.88
2022-09-11T20:34:11.406Z,9.52
2022-09-11T20:36:37.930Z,9.20
2022-09-11T20:39:04.624Z,9.68
2022-09-11T20:41:32.356Z,9.82
2022-09-11T20:44:02.383Z,9.98
2022-09-11T20:46:29.067Z,10.48
2022-09-11T20:48:55.923Z,9.63
2022-09-11T20:51:25.178Z,9.82
2022-09-11T20:53:51.764Z,10.18
2022-09-11T20:56:21.029Z,10.20
2022-09-11T20:58:48.013Z,9.85
2022-09-11T21:01:18.990Z,10.30
2022-09-11T21:03:50.527Z,10.20
2022-09-11T21:06:20.020Z,10.52
2022-09-11T21:08:59.166Z,10.82
2022-09-11T21:11:28.166Z,10.18
2022-09-11T21:13:54.860Z,9.77
2022-09-11T21:16:22.144Z,10.38
2022-09-11T21:18:54.514Z,10.30
2022-09-11T21:21:22.141Z,10.43
2022-09-11T21:23:49.340Z,10.05
2022-09-11T21:26:19.626Z,10.57
2022-09-11T21:28:46.213Z,10.52
2022-09-11T21:31:12.781Z,10.20
2022-09-11T21:33:39.597Z,11.02
2022-09-11T21:36:07.141Z,10.32
2022-09-11T21:38:34.036Z,10.20
2022-09-11T21:41:03.363Z,10.00
2022-09-11T21:43:29.977Z,9.70
2022-09-11T21:45:56.754Z,10.18
2022-09-11T21:48:24.291Z,9.98
2022-09-11T21:50:51.501Z,10.32
2022-09-11T21:53:18.955Z,10.30
2022-09-11T21:55:47.009Z,10.05
2022-09-11T21:58:17.948Z,9.77
2022-09-11T22:00:45.818Z,10.82
2022-09-11T22:03:13.065Z,10.50
2022-09-11T22:05:43.260Z,10.48
2022-09-11T22:08:11.999Z,10.73
2022-09-11T22:10:49.246Z,11.23
2022-09-11T22:13:17.364Z,10.52
2022-09-11T22:15:45.716Z,12.32
2022-09-11T22:18:21.574Z,13.10
2022-09-11T22:20:48.500Z,12.82
2022-09-11T22:23:22.873Z,11.95
2022-09-11T22:25:58.464Z,12.27
2022-09-11T22:28:25.462Z,11.93
2022-09-11T22:30:52.246Z,11.98
2022-09-11T22:33:20.971Z,12.02
2022-09-11T22:35:49.770Z,11.95
2022-09-11T22:38:16.626Z,11.38
2022-09-11T22:40:43.157Z,11.70
2022-09-11T22:43:12.071Z,11.25
2022-09-11T22:45:38.620Z,12.13
2022-09-11T22:48:05.214Z,11.02
2022-09-11T22:50:33.359Z,12.00
2022-09-11T22:52:59.867Z,12.15
2022-09-11T22:55:28.898Z,12.38
2022-09-11T22:57:55.606Z,11.77
2022-09-11T23:00:22.175Z,11.98
2022-09-11T23:02:48.736Z,12.23
2022-09-11T23:05:47.494Z,12.35
2022-09-11T23:08:14.072Z,12.30
2022-09-11T23:10:47.497Z,12.55
2022-09-11T23:13:14.695Z,12.98
2022-09-11T23:15:41.231Z,12.90
2022-09-11T23:18:07.748Z,13.70
2022-09-11T23:20:36.647Z,13.10
2022-09-11T23:23:04.249Z,12.90
2022-09-11T23:25:34.238Z,13.15
2022-09-11T23:28:00.829Z,12.90
2022-09-11T23:30:32.084Z,12.88
2022-09-11T23:32:58.575Z,12.93
2022-09-11T23:35:25.102Z,12.93
2022-09-11T23:37:51.677Z,11.98
2022-09-11T23:40:18.217Z,12.68
2022-09-11T23:42:44.745Z,12.25
2022-09-11T23:45:12.780Z,12.20
2022-09-11T23:47:42.031Z,12.98
2022-09-11T23:50:11.313Z,13.35
2022-09-11T23:52:40.104Z,13.07
2022-09-11T23:55:07.078Z,12.55
2022-09-11T23:57:34.020Z,12.70
